Bennett, North Carolina
Current Conditions -  °F | °C
As of 3:35 AM on Tuesday 21 Oct 2014 (Local Time) from K5W8 Reporting Station
Scattered Clouds Scattered Clouds  
Wind Chill: 49°   Ceiling: Unl
Heat Index: 49°   Visibility: 10mi
Dew Point: 49°   Wind: 0mph
Humidity: 99%   Direction: NA
Pressure: 29.94"   Gusts: NA
Location:  35.57°N, 79.54°W
Report Text: K5W8 210735Z AUTO 00000KT 10SM SCT110 10/10 A2994 RMK AO2 T00970096
Loading
Personal Weather Stations






























Interactive Weather Map
Tropical Storm Tracking
New forecast layout! Learn more

10-Day Weather Forecast

Advertisements
Track Severe Weather on mobile